createdAt,value
2022-11-15T00:02:19.868Z,17.58
2022-11-15T00:05:06.353Z,16.02
2022-11-15T00:07:56.280Z,14.75
2022-11-15T00:10:42.908Z,15.65
2022-11-15T00:13:30.523Z,15.55
2022-11-15T00:16:17.066Z,15.25
2022-11-15T00:19:03.521Z,15.32
2022-11-15T00:21:49.766Z,15.98
2022-11-15T00:24:35.800Z,16.10
2022-11-15T00:27:21.748Z,16.05
2022-11-15T00:30:08.334Z,16.20
2022-11-15T00:33:10.861Z,16.95
2022-11-15T00:36:06.353Z,16.73
2022-11-15T00:38:52.349Z,16.77
2022-11-15T00:41:38.430Z,15.85
2022-11-15T00:44:24.786Z,15.52
2022-11-15T00:47:11.000Z,19.02
2022-11-15T00:49:59.121Z,17.75
2022-11-15T00:52:45.592Z,18.25
2022-11-15T00:55:31.756Z,17.88
2022-11-15T00:58:17.809Z,18.38
2022-11-15T01:01:11.775Z,17.35
2022-11-15T01:04:01.439Z,18.67
2022-11-15T01:06:48.216Z,20.95
2022-11-15T01:09:38.338Z,25.45
2022-11-15T01:12:24.359Z,21.17
2022-11-15T01:15:10.441Z,21.63
2022-11-15T01:17:56.901Z,22.63
2022-11-15T01:20:44.261Z,23.80
2022-11-15T01:23:30.888Z,23.05
2022-11-15T01:26:17.477Z,22.45
2022-11-15T01:29:03.471Z,24.00
2022-11-15T01:31:50.814Z,23.27
2022-11-15T01:34:37.101Z,21.48
2022-11-15T01:37:23.248Z,24.02
2022-11-15T01:40:09.806Z,22.55
2022-11-15T01:42:55.965Z,20.92
2022-11-15T01:45:42.547Z,19.20
2022-11-15T01:48:33.966Z,19.45
2022-11-15T01:51:22.603Z,22.77
2022-11-15T01:54:14.061Z,20.50
2022-11-15T01:57:07.015Z,22.70
2022-11-15T01:59:53.303Z,21.75
2022-11-15T02:02:40.296Z,21.65
2022-11-15T02:05:26.434Z,20.45
2022-11-15T02:08:20.905Z,20.05
2022-11-15T02:11:11.356Z,19.58
2022-11-15T02:13:59.836Z,17.88
2022-11-15T02:17:18.064Z,18.48
2022-11-15T02:20:23.168Z,16.08
2022-11-15T02:23:49.470Z,19.50
2022-11-15T02:26:57.420Z,19.60
2022-11-15T02:30:03.885Z,17.95
2022-11-15T02:32:59.724Z,17.77
2022-11-15T02:35:54.854Z,17.77
2022-11-15T02:39:03.802Z,19.17
2022-11-15T02:41:56.457Z,18.58
2022-11-15T02:44:46.943Z,19.23
2022-11-15T02:47:38.847Z,18.48
2022-11-15T02:50:28.437Z,14.77
2022-11-15T02:53:16.235Z,14.80
2022-11-15T02:56:02.552Z,13.85
2022-11-15T02:58:58.425Z,13.90
2022-11-15T03:02:02.309Z,13.68
2022-11-15T03:04:59.246Z,15.05
2022-11-15T03:07:50.917Z,13.68
2022-11-15T03:10:55.113Z,12.18
2022-11-15T03:13:57.326Z,11.25
2022-11-15T03:17:06.310Z,10.25
2022-11-15T03:19:57.126Z,15.23
2022-11-15T03:22:45.856Z,17.90
2022-11-15T03:25:34.477Z,15.43
2022-11-15T03:28:26.153Z,23.92
2022-11-15T03:31:33.040Z,22.38
2022-11-15T03:34:31.363Z,18.17
2022-11-15T03:37:21.851Z,17.10
2022-11-15T03:40:11.007Z,15.68
2022-11-15T03:43:15.741Z,15.73
2022-11-15T03:46:20.991Z,16.70
2022-11-15T03:52:00.247Z,16.42
2022-11-15T03:54:55.763Z,15.73
2022-11-15T03:57:42.110Z,15.23
2022-11-15T04:00:29.960Z,15.27
2022-11-15T04:03:15.751Z,14.57
2022-11-15T04:06:01.788Z,13.98
2022-11-15T04:08:48.061Z,14.13
2022-11-15T04:11:34.056Z,13.57
2022-11-15T04:14:19.961Z,13.05
2022-11-15T04:17:06.044Z,12.70
2022-11-15T04:20:14.300Z,12.90
2022-11-15T04:23:20.904Z,12.32
2022-11-15T04:26:09.094Z,16.38
2022-11-15T04:29:13.391Z,16.90
2022-11-15T04:32:08.182Z,18.60
2022-11-15T04:34:54.290Z,18.45
2022-11-15T04:37:42.869Z,20.17
2022-11-15T04:40:33.102Z,22.25
2022-11-15T04:43:19.119Z,21.60
2022-11-15T04:46:08.193Z,22.15
2022-11-15T04:48:58.510Z,23.92
2022-11-15T04:51:45.813Z,22.02
2022-11-15T04:54:31.789Z,22.75
2022-11-15T04:57:17.690Z,53.72
2022-11-15T05:00:09.356Z,75.57
2022-11-15T05:03:34.764Z,35.97
2022-11-15T05:06:21.063Z,32.73
2022-11-15T05:09:07.014Z,26.15
2022-11-15T05:11:52.888Z,36.85
2022-11-15T05:14:39.299Z,27.25
2022-11-15T05:17:36.768Z,27.08
2022-11-15T05:20:25.465Z,30.30
2022-11-15T05:23:11.505Z,35.63
2022-11-15T05:26:06.445Z,33.33
2022-11-15T05:28:56.602Z,31.65
2022-11-15T05:31:43.312Z,29.13
2022-11-15T05:34:29.091Z,27.85
2022-11-15T05:37:15.916Z,52.10
2022-11-15T05:40:04.405Z,39.13
2022-11-15T05:42:50.870Z,41.80
2022-11-15T05:45:37.590Z,34.70
2022-11-15T05:48:23.607Z,31.55
2022-11-15T05:51:09.865Z,27.17
2022-11-15T05:53:57.924Z,24.77
2022-11-15T05:56:44.877Z,24.70
2022-11-15T05:59:33.356Z,24.75
2022-11-15T06:02:19.619Z,35.38
2022-11-15T06:05:06.311Z,115.95
2022-11-15T06:07:52.342Z,85.25
2022-11-15T06:10:39.450Z,27.13
2022-11-15T06:13:25.648Z,27.33
2022-11-15T06:16:11.642Z,27.48
2022-11-15T06:18:58.652Z,102.38
2022-11-15T06:21:44.791Z,46.70
2022-11-15T06:24:30.728Z,46.42
2022-11-15T06:27:16.695Z,37.05
2022-11-15T06:30:03.041Z,29.75
2022-11-15T06:32:49.172Z,28.65
2022-11-15T06:35:36.380Z,31.55
2022-11-15T06:38:22.492Z,25.02
2022-11-15T06:41:10.677Z,22.40
2022-11-15T06:43:58.350Z,23.60
2022-11-15T06:46:44.256Z,23.45
2022-11-15T06:49:30.492Z,23.45
2022-11-15T06:52:19.399Z,22.45
2022-11-15T06:55:06.147Z,21.98
2022-11-15T06:57:53.476Z,24.65
2022-11-15T07:00:39.532Z,25.00
2022-11-15T07:03:25.621Z,28.95
2022-11-15T07:06:11.703Z,26.70
2022-11-15T07:08:58.225Z,30.30
2022-11-15T07:11:44.328Z,30.27
2022-11-15T07:14:30.345Z,31.23
2022-11-15T07:17:16.539Z,34.00
2022-11-15T07:20:02.648Z,38.70
2022-11-15T07:22:48.994Z,46.30
2022-11-15T07:25:35.439Z,41.05
2022-11-15T07:28:21.943Z,38.97
2022-11-15T07:31:09.609Z,40.13
2022-11-15T07:33:55.961Z,38.53
2022-11-15T07:36:41.981Z,39.33
2022-11-15T07:39:28.313Z,40.33
2022-11-15T07:42:33.968Z,39.03
2022-11-15T07:45:21.659Z,37.17
2022-11-15T07:48:07.959Z,37.78
2022-11-15T07:50:53.992Z,38.42
2022-11-15T07:53:39.928Z,40.03
2022-11-15T07:56:25.881Z,35.85
2022-11-15T07:59:11.775Z,33.55
2022-11-15T08:01:57.916Z,37.22
2022-11-15T08:04:44.901Z,33.67
2022-11-15T08:07:32.405Z,32.20
2022-11-15T08:10:20.095Z,31.27
2022-11-15T08:13:09.289Z,34.38
2022-11-15T08:16:00.215Z,32.25
2022-11-15T08:18:52.066Z,32.33
2022-11-15T08:21:38.355Z,31.58
2022-11-15T08:24:24.420Z,30.60
2022-11-15T08:27:15.866Z,29.08
2022-11-15T08:30:02.787Z,29.98
2022-11-15T08:32:51.593Z,27.40
2022-11-15T08:35:37.681Z,28.65
2022-11-15T08:38:23.874Z,27.35
2022-11-15T08:41:15.374Z,23.67
2022-11-15T08:44:01.543Z,22.85
2022-11-15T08:46:48.067Z,22.17
2022-11-15T08:49:33.991Z,23.55
2022-11-15T08:52:20.353Z,21.17
2022-11-15T08:55:07.034Z,21.73
2022-11-15T08:57:52.972Z,22.20
2022-11-15T09:00:39.169Z,21.83
2022-11-15T09:03:25.656Z,22.23
2022-11-15T09:06:12.019Z,23.98
2022-11-15T09:08:58.434Z,22.88
2022-11-15T09:11:44.649Z,24.50
2022-11-15T09:14:31.020Z,24.85
2022-11-15T09:17:21.698Z,24.13
2022-11-15T09:20:13.525Z,24.60
2022-11-15T09:23:04.076Z,25.13
2022-11-15T09:25:50.166Z,24.80
2022-11-15T09:28:37.741Z,24.35
2022-11-15T09:31:23.642Z,25.45
2022-11-15T09:34:10.317Z,26.73
2022-11-15T09:36:56.617Z,24.55
2022-11-15T09:39:42.591Z,24.10
2022-11-15T09:42:47.651Z,23.25
2022-11-15T09:45:50.811Z,24.90
2022-11-15T09:49:00.816Z,25.33
2022-11-15T09:51:47.808Z,23.40
2022-11-15T09:57:32.335Z,23.35
2022-11-15T10:03:17.907Z,26.20
2022-11-15T10:05:48.302Z,27.33
2022-11-15T10:08:49.894Z,28.58
2022-11-15T10:11:38.967Z,28.33
2022-11-15T10:14:18.112Z,27.80
2022-11-15T10:17:03.676Z,28.17
2022-11-15T10:20:03.910Z,29.23
2022-11-15T10:22:48.986Z,27.75
2022-11-15T10:25:25.371Z,28.23
2022-11-15T10:28:31.553Z,27.48
2022-11-15T10:31:02.016Z,27.20
2022-11-15T10:33:34.942Z,27.65
2022-11-15T10:36:10.172Z,26.92
2022-11-15T10:38:50.182Z,26.55
2022-11-15T10:41:20.825Z,28.17
2022-11-15T10:44:17.254Z,30.10
2022-11-15T10:47:06.974Z,28.80
2022-11-15T10:49:36.019Z,29.23
2022-11-15T10:52:16.186Z,29.90
2022-11-15T10:54:50.067Z,32.75
2022-11-15T10:57:21.384Z,32.35
2022-11-15T10:59:53.234Z,32.58
2022-11-15T11:02:40.237Z,31.05
2022-11-15T11:05:26.690Z,31.58
2022-11-15T11:08:00.164Z,33.38
2022-11-15T11:10:50.463Z,35.70
2022-11-15T11:13:24.366Z,33.30
2022-11-15T11:15:56.723Z,34.33
2022-11-15T11:18:34.420Z,35.47
2022-11-15T11:21:12.803Z,35.95
2022-11-15T11:23:54.465Z,35.13
2022-11-15T11:26:47.123Z,34.42
2022-11-15T11:29:23.893Z,35.88
2022-11-15T11:32:03.030Z,36.28
2022-11-15T11:34:51.339Z,38.42
2022-11-15T11:37:40.696Z,36.63
2022-11-15T11:40:31.748Z,38.05
2022-11-15T11:43:25.276Z,38.88
2022-11-15T11:46:36.307Z,39.45
2022-11-15T11:49:10.974Z,38.25
2022-11-15T11:51:48.715Z,39.75
2022-11-15T11:54:23.943Z,40.55
2022-11-15T11:56:52.764Z,44.53
2022-11-15T11:59:42.905Z,41.58
2022-11-15T12:02:21.644Z,44.47
2022-11-15T12:04:53.580Z,42.03
2022-11-15T12:07:30.541Z,40.65
2022-11-15T12:10:24.923Z,42.67
2022-11-15T12:13:02.006Z,42.57
2022-11-15T12:15:37.584Z,44.03
2022-11-15T12:18:05.742Z,46.50
2022-11-15T12:20:40.103Z,42.25
2022-11-15T12:23:22.520Z,45.08
2022-11-15T12:26:05.591Z,45.90
2022-11-15T12:29:04.441Z,41.70
2022-11-15T12:31:36.131Z,44.92
2022-11-15T12:34:15.009Z,45.35
2022-11-15T12:36:45.178Z,43.30
2022-11-15T12:39:13.974Z,44.42
2022-11-15T12:42:05.158Z,42.58
2022-11-15T12:44:32.589Z,42.25
2022-11-15T12:47:02.200Z,46.45
2022-11-15T12:49:29.621Z,48.55
2022-11-15T12:51:59.869Z,48.00
2022-11-15T12:54:31.834Z,46.15
2022-11-15T12:57:08.167Z,46.50
2022-11-15T13:00:03.264Z,45.17
2022-11-15T13:02:35.220Z,45.85
2022-11-15T13:05:23.814Z,45.25
2022-11-15T13:07:51.270Z,46.03
2022-11-15T13:10:30.715Z,46.67
2022-11-15T13:13:08.833Z,48.42
2022-11-15T13:15:57.016Z,48.65
2022-11-15T13:18:34.949Z,42.00
2022-11-15T13:21:24.585Z,44.88
2022-11-15T13:23:54.523Z,46.08
2022-11-15T13:26:22.796Z,50.88
2022-11-15T13:28:55.600Z,49.58
2022-11-15T13:31:44.818Z,52.35
2022-11-15T13:34:51.396Z,59.45
2022-11-15T13:37:22.308Z,54.10
2022-11-15T13:39:50.731Z,51.47
2022-11-15T13:42:20.990Z,53.88
2022-11-15T13:45:00.815Z,104.47
2022-11-15T13:47:30.390Z,55.08
2022-11-15T13:49:59.241Z,52.35
2022-11-15T13:52:32.881Z,55.35
2022-11-15T13:55:24.635Z,68.53
2022-11-15T13:58:01.043Z,60.22
2022-11-15T14:00:35.274Z,54.95
2022-11-15T14:03:15.195Z,103.32
2022-11-15T14:05:43.064Z,105.88
2022-11-15T14:08:24.378Z,61.25
2022-11-15T14:11:26.986Z,107.25
2022-11-15T14:14:09.467Z,109.90
2022-11-15T14:16:48.733Z,61.78
2022-11-15T14:19:22.110Z,61.78
2022-11-15T14:22:29.077Z,52.67
2022-11-15T14:25:18.757Z,111.53
2022-11-15T14:28:08.763Z,57.97
2022-11-15T14:30:36.382Z,101.50
2022-11-15T14:33:20.412Z,146.48
2022-11-15T14:35:49.048Z,67.05
2022-11-15T14:38:16.849Z,130.48
2022-11-15T14:40:44.989Z,197.65
2022-11-15T14:43:13.543Z,372.17
2022-11-15T14:45:41.436Z,222.88
2022-11-15T14:48:09.725Z,92.40
2022-11-15T14:50:37.619Z,76.60
2022-11-15T14:53:05.818Z,63.55
2022-11-15T14:55:37.264Z,60.13
2022-11-15T14:58:05.866Z,57.05
2022-11-15T15:00:35.541Z,116.55
2022-11-15T15:03:04.403Z,142.63
2022-11-15T15:05:34.716Z,112.25
2022-11-15T15:08:03.474Z,310.30
2022-11-15T15:10:40.656Z,150.60
2022-11-15T15:13:21.294Z,84.68
2022-11-15T15:15:50.270Z,132.77
2022-11-15T15:18:19.166Z,209.73
2022-11-15T15:20:58.356Z,120.70
2022-11-15T15:23:27.956Z,79.72
2022-11-15T15:25:55.598Z,71.78
2022-11-15T15:28:23.285Z,71.95
2022-11-15T15:30:53.715Z,98.38
2022-11-15T15:33:21.798Z,68.60
2022-11-15T15:35:49.254Z,61.20
2022-11-15T15:38:17.697Z,65.50
2022-11-15T15:40:45.300Z,63.20
2022-11-15T15:43:12.875Z,58.45
2022-11-15T15:45:42.245Z,72.55
2022-11-15T15:48:13.823Z,63.22
2022-11-15T15:50:43.825Z,55.95
2022-11-15T15:53:12.648Z,56.58
2022-11-15T15:55:40.262Z,53.80
2022-11-15T15:58:09.199Z,52.78
2022-11-15T16:00:37.947Z,191.02
2022-11-15T16:03:05.534Z,150.15
2022-11-15T16:05:33.530Z,83.60
2022-11-15T16:08:01.490Z,81.13
2022-11-15T16:10:34.947Z,75.55
2022-11-15T16:13:02.938Z,58.80
2022-11-15T16:15:32.716Z,53.83
2022-11-15T16:18:01.840Z,58.40
2022-11-15T16:20:46.171Z,55.17
2022-11-15T16:23:15.841Z,59.85
2022-11-15T16:25:50.851Z,58.85
2022-11-15T16:28:20.141Z,56.08
2022-11-15T16:30:51.091Z,58.78
2022-11-15T16:33:23.005Z,97.47
2022-11-15T16:35:50.508Z,66.15
2022-11-15T16:38:18.669Z,63.45
2022-11-15T16:40:46.175Z,85.13
2022-11-15T16:43:13.984Z,95.68
2022-11-15T16:45:42.021Z,100.65
2022-11-15T16:48:22.384Z,62.28
2022-11-15T16:50:49.936Z,73.28
2022-11-15T16:53:17.767Z,65.60
2022-11-15T16:55:45.391Z,72.05
2022-11-15T16:58:13.325Z,61.22
2022-11-15T17:00:40.849Z,71.35
2022-11-15T17:03:08.479Z,60.80
2022-11-15T17:05:36.125Z,85.00
2022-11-15T17:08:03.668Z,72.20
2022-11-15T17:10:31.445Z,65.30
2022-11-15T17:12:59.200Z,55.80
2022-11-15T17:15:26.818Z,55.17
2022-11-15T17:17:55.171Z,56.28
2022-11-15T17:20:25.256Z,59.88
2022-11-15T17:22:54.274Z,55.97
2022-11-15T17:25:21.982Z,55.85
2022-11-15T17:27:50.190Z,53.78
2022-11-15T17:30:20.408Z,57.80
2022-11-15T17:32:49.770Z,50.35
2022-11-15T17:35:17.353Z,59.33
2022-11-15T17:37:45.391Z,62.47
2022-11-15T17:40:13.139Z,53.97
2022-11-15T17:42:42.016Z,55.63
2022-11-15T17:45:11.161Z,57.50
2022-11-15T17:47:38.903Z,53.13
2022-11-15T17:50:08.318Z,53.33
2022-11-15T17:52:36.191Z,184.50
2022-11-15T17:55:03.852Z,361.17
2022-11-15T17:57:31.585Z,99.80
2022-11-15T18:00:00.597Z,114.03
2022-11-15T18:02:28.383Z,87.90
2022-11-15T18:04:56.094Z,113.97
2022-11-15T18:07:23.899Z,79.35
2022-11-15T18:09:51.791Z,87.22
2022-11-15T18:12:19.841Z,59.05
2022-11-15T18:14:47.391Z,49.33
2022-11-15T18:17:14.937Z,54.33
2022-11-15T18:19:42.497Z,54.25
2022-11-15T18:22:10.381Z,55.25
2022-11-15T18:24:38.666Z,51.40
2022-11-15T18:27:07.214Z,57.88
2022-11-15T18:29:37.721Z,53.60
2022-11-15T18:32:11.564Z,54.83
2022-11-15T18:34:39.461Z,53.20
2022-11-15T18:37:07.731Z,50.00
2022-11-15T18:39:35.621Z,46.15
2022-11-15T18:42:03.980Z,47.72
2022-11-15T18:44:31.752Z,48.78
2022-11-15T18:46:59.402Z,51.15
2022-11-15T18:49:27.005Z,48.95
2022-11-15T18:51:55.022Z,52.00
2022-11-15T18:54:26.872Z,47.47
2022-11-15T18:56:58.523Z,46.08
2022-11-15T18:59:27.770Z,45.20
2022-11-15T19:01:56.090Z,46.05
2022-11-15T19:04:24.034Z,51.72
2022-11-15T19:06:52.879Z,59.67
2022-11-15T19:09:20.456Z,64.25
2022-11-15T19:11:51.481Z,54.17
2022-11-15T19:14:24.229Z,64.15
2022-11-15T19:16:52.663Z,61.30
2022-11-15T19:19:22.977Z,55.67
2022-11-15T19:21:52.013Z,48.63
2022-11-15T19:24:19.962Z,44.47
2022-11-15T19:26:47.826Z,101.40
2022-11-15T19:29:15.658Z,70.78
2022-11-15T19:31:43.571Z,56.25
2022-11-15T19:34:12.869Z,55.08
2022-11-15T19:36:44.797Z,50.15
2022-11-15T19:39:14.201Z,50.28
2022-11-15T19:41:43.782Z,61.30
2022-11-15T19:44:12.827Z,46.05
2022-11-15T19:46:40.900Z,47.63
2022-11-15T19:49:11.047Z,44.92
2022-11-15T19:51:41.624Z,54.03
2022-11-15T19:54:10.594Z,47.47
2022-11-15T19:56:39.897Z,46.13
2022-11-15T19:59:08.520Z,43.72
2022-11-15T20:01:38.863Z,42.60
2022-11-15T20:04:09.211Z,45.33
2022-11-15T20:06:41.015Z,46.08
2022-11-15T20:09:12.481Z,42.97
2022-11-15T20:11:41.904Z,46.50
2022-11-15T20:14:11.704Z,45.58
2022-11-15T20:16:40.072Z,44.33
2022-11-15T20:19:08.813Z,65.15
2022-11-15T20:21:36.463Z,56.13
2022-11-15T20:24:04.911Z,40.75
2022-11-15T20:26:32.570Z,39.65
2022-11-15T20:29:02.159Z,39.80
2022-11-15T20:31:31.463Z,39.92
2022-11-15T20:33:59.985Z,39.45
2022-11-15T20:36:28.408Z,38.60
2022-11-15T20:38:58.245Z,48.67
2022-11-15T20:41:26.760Z,45.65
2022-11-15T20:43:55.111Z,56.72
2022-11-15T20:46:22.690Z,60.20
2022-11-15T20:48:53.111Z,43.13
2022-11-15T20:51:21.188Z,39.97
2022-11-15T20:53:49.084Z,38.83
2022-11-15T20:56:20.047Z,37.38
2022-11-15T20:58:50.373Z,38.03
2022-11-15T21:01:24.695Z,39.20
2022-11-15T21:03:56.801Z,38.55
2022-11-15T21:06:26.533Z,42.00
2022-11-15T21:09:15.582Z,37.72
2022-11-15T21:12:01.625Z,39.55
2022-11-15T21:14:29.321Z,42.60
2022-11-15T21:16:56.850Z,38.10
2022-11-15T21:19:28.955Z,40.28
2022-11-15T21:22:00.692Z,246.30
2022-11-15T21:24:28.384Z,48.15
2022-11-15T21:26:56.222Z,47.65
2022-11-15T21:29:24.109Z,48.78
2022-11-15T21:31:53.274Z,42.15
2022-11-15T21:34:22.088Z,41.13
2022-11-15T21:36:49.676Z,38.75
2022-11-15T21:39:17.202Z,39.65
2022-11-15T21:41:44.686Z,39.83
2022-11-15T21:44:12.189Z,36.92
2022-11-15T21:46:40.092Z,35.90
2022-11-15T21:49:07.628Z,41.58
2022-11-15T21:51:35.677Z,41.17
2022-11-15T21:54:03.534Z,41.42
2022-11-15T21:56:31.206Z,44.72
2022-11-15T21:58:59.863Z,42.60
2022-11-15T22:01:46.980Z,40.60
2022-11-15T22:04:15.125Z,41.83
2022-11-15T22:06:42.728Z,38.85
2022-11-15T22:09:10.513Z,39.25
2022-11-15T22:11:38.038Z,39.28
2022-11-15T22:14:05.638Z,39.53
2022-11-15T22:16:33.312Z,39.97
2022-11-15T22:19:01.101Z,37.13
2022-11-15T22:21:28.910Z,40.25
2022-11-15T22:23:56.682Z,51.33
2022-11-15T22:26:24.327Z,46.58
2022-11-15T22:28:52.147Z,55.60
2022-11-15T22:31:20.211Z,49.03
2022-11-15T22:33:47.765Z,46.60
2022-11-15T22:36:15.503Z,41.88
2022-11-15T22:38:43.110Z,44.35
2022-11-15T22:41:10.698Z,46.85
2022-11-15T22:43:38.337Z,43.33
2022-11-15T22:46:06.139Z,41.63
2022-11-15T22:48:38.791Z,41.38
2022-11-15T22:51:08.053Z,39.08
2022-11-15T22:53:35.720Z,43.20
2022-11-15T22:56:05.880Z,45.05
2022-11-15T22:58:34.548Z,43.28
2022-11-15T23:01:04.370Z,47.90
2022-11-15T23:03:33.541Z,48.13
2022-11-15T23:06:06.435Z,46.40
2022-11-15T23:08:34.264Z,44.05
2022-11-15T23:11:22.392Z,41.90
2022-11-15T23:14:10.559Z,43.47
2022-11-15T23:16:58.077Z,41.78
2022-11-15T23:19:45.541Z,47.38
2022-11-15T23:22:48.365Z,44.65
2022-11-15T23:25:35.834Z,41.80
2022-11-15T23:28:05.241Z,46.72
2022-11-15T23:30:55.241Z,45.60
2022-11-15T23:33:42.213Z,42.25
2022-11-15T23:36:09.808Z,45.70
2022-11-15T23:38:37.749Z,45.40
2022-11-15T23:41:06.206Z,43.60
2022-11-15T23:43:33.846Z,44.90
2022-11-15T23:46:02.030Z,48.00
2022-11-15T23:48:29.749Z,45.53
2022-11-15T23:50:57.585Z,43.95
2022-11-15T23:53:25.105Z,40.83
2022-11-15T23:55:57.914Z,42.38
2022-11-15T23:58:25.681Z,42.95
